createdAt,value
2023-01-30T00:00:21.681Z,100783.50
2023-01-30T00:01:28.257Z,100748.28
2023-01-30T00:02:30.856Z,100579.47
2023-01-30T00:03:32.568Z,100695.44
2023-01-30T00:04:34.471Z,100529.56
2023-01-30T00:05:36.173Z,100548.47
2023-01-30T00:06:38.630Z,100601.84
2023-01-30T00:07:40.146Z,100672.59
2023-01-30T00:08:42.024Z,100579.13
2023-01-30T00:09:43.694Z,100633.66
2023-01-30T00:10:46.253Z,100726.38
2023-01-30T00:11:47.861Z,100688.91
2023-01-30T00:12:49.470Z,100713.75
2023-01-30T00:13:51.657Z,100572.88
2023-01-30T00:14:53.349Z,100677.13
2023-01-30T00:15:54.928Z,100651.03
2023-01-30T00:16:56.546Z,100733.31
2023-01-30T00:17:58.294Z,100510.59
2023-01-30T00:18:59.972Z,100558.06
2023-01-30T00:20:01.801Z,100685.25
2023-01-30T00:21:06.274Z,100713.97
2023-01-30T00:22:10.491Z,100676.28
2023-01-30T00:23:12.134Z,100691.13
2023-01-30T00:24:13.834Z,100693.28
2023-01-30T00:25:15.809Z,100639.38
2023-01-30T00:26:17.716Z,100571.41
2023-01-30T00:27:19.504Z,100535.63
2023-01-30T00:28:24.652Z,100668.91
2023-01-30T00:29:26.542Z,100769.06
2023-01-30T00:30:28.544Z,100761.66
2023-01-30T00:31:33.060Z,100622.91
2023-01-30T00:32:34.853Z,100735.22
2023-01-30T00:33:38.617Z,100725.56
2023-01-30T00:34:40.205Z,100701.84
2023-01-30T00:35:49.327Z,100724.34
2023-01-30T00:36:58.916Z,100730.25
2023-01-30T00:38:04.209Z,100758.47
2023-01-30T00:39:05.838Z,100753.84
2023-01-30T00:40:08.005Z,100591.28
2023-01-30T00:41:10.755Z,100769.63
2023-01-30T00:42:31.331Z,100753.25
2023-01-30T00:43:51.818Z,100762.91
2023-01-30T00:45:11.981Z,100683.75
2023-01-30T00:47:06.299Z,100732.75
2023-01-30T00:48:08.051Z,100763.34
2023-01-30T00:49:12.691Z,100813.72
2023-01-30T00:50:14.357Z,100843.34
2023-01-30T00:51:19.199Z,100737.28
2023-01-30T00:52:20.986Z,100700.94
2023-01-30T00:53:25.469Z,100753.38
2023-01-30T00:54:27.193Z,100729.19
2023-01-30T00:55:28.898Z,100761.78
2023-01-30T00:56:30.446Z,100824.09
2023-01-30T00:57:31.969Z,100808.44
2023-01-30T00:58:33.897Z,100706.22
2023-01-30T00:59:35.489Z,100774.34
2023-01-30T01:00:37.207Z,100707.06
2023-01-30T01:01:39.214Z,100839.13
2023-01-30T01:02:40.842Z,100838.34
2023-01-30T01:03:42.608Z,100791.31
2023-01-30T01:04:44.421Z,100846.22
2023-01-30T01:05:46.208Z,100829.50
2023-01-30T01:06:47.925Z,100779.41
2023-01-30T01:07:49.718Z,100795.09
2023-01-30T01:08:51.413Z,100616.34
2023-01-30T01:09:53.195Z,100773.16
2023-01-30T01:10:54.985Z,100785.47
2023-01-30T01:11:56.619Z,100797.22
2023-01-30T01:12:58.459Z,100690.59
2023-01-30T01:14:02.616Z,100823.69
2023-01-30T01:15:04.552Z,100818.91
2023-01-30T01:16:06.375Z,100820.38
2023-01-30T01:17:08.043Z,100837.38
2023-01-30T01:18:09.748Z,100677.66
2023-01-30T01:19:11.322Z,100702.75
2023-01-30T01:20:13.723Z,100773.94
2023-01-30T01:21:20.195Z,100682.19
2023-01-30T01:22:22.120Z,100718.66
2023-01-30T01:23:23.818Z,100801.28
2023-01-30T01:24:25.359Z,100762.69
2023-01-30T01:25:26.995Z,100768.53
2023-01-30T01:26:28.940Z,100637.22
2023-01-30T01:27:30.573Z,100804.84
2023-01-30T01:28:32.422Z,100785.81
2023-01-30T01:29:34.067Z,100826.56
2023-01-30T01:30:39.897Z,100808.34
2023-01-30T01:31:42.885Z,100794.28
2023-01-30T01:32:44.880Z,100837.47
2023-01-30T01:33:46.604Z,100682.56
2023-01-30T01:34:48.480Z,100843.31
2023-01-30T01:35:49.997Z,100820.22
2023-01-30T01:36:53.952Z,100838.84
2023-01-30T01:37:56.189Z,100820.13
2023-01-30T01:38:57.785Z,100832.84
2023-01-30T01:40:20.027Z,100820.50
2023-01-30T01:41:21.720Z,100820.13
2023-01-30T01:42:26.518Z,100784.81
2023-01-30T01:43:31.193Z,100771.31
2023-01-30T01:45:05.943Z,100723.09
2023-01-30T01:46:20.579Z,100849.13
2023-01-30T01:47:22.290Z,100824.25
2023-01-30T01:48:38.510Z,100837.88
2023-01-30T01:49:40.376Z,100724.69
2023-01-30T01:50:59.444Z,100846.03
2023-01-30T01:52:07.932Z,100824.72
2023-01-30T01:53:14.417Z,100809.97
2023-01-30T01:54:21.431Z,100687.16
2023-01-30T01:55:25.232Z,100739.81
2023-01-30T01:56:27.510Z,100802.56
2023-01-30T01:57:48.572Z,100808.66
2023-01-30T01:58:57.353Z,100769.59
2023-01-30T02:00:11.518Z,100822.53
2023-01-30T02:01:13.462Z,100783.25
2023-01-30T02:02:15.390Z,100650.97
2023-01-30T02:03:21.601Z,100713.44
2023-01-30T02:04:43.344Z,100823.81
2023-01-30T02:05:49.878Z,100866.47
2023-01-30T02:06:51.672Z,100802.72
2023-01-30T02:08:14.358Z,100775.63
2023-01-30T02:09:15.913Z,100789.38
2023-01-30T02:10:23.712Z,100756.13
2023-01-30T02:11:49.872Z,100785.81
2023-01-30T02:12:53.003Z,100792.69
2023-01-30T02:13:55.380Z,100782.44
2023-01-30T02:14:58.936Z,100786.69
2023-01-30T02:16:02.929Z,100753.69
2023-01-30T02:17:04.799Z,100754.84
2023-01-30T02:18:06.725Z,100805.81
2023-01-30T02:19:25.891Z,100723.75
2023-01-30T02:20:40.307Z,100755.53
2023-01-30T02:22:17.743Z,100784.97
2023-01-30T02:23:44.409Z,100745.09
2023-01-30T02:25:04.469Z,100769.25
2023-01-30T02:26:43.798Z,100762.09
2023-01-30T02:28:00.491Z,100745.56
2023-01-30T02:29:32.923Z,100731.91
2023-01-30T02:31:18.436Z,100728.81
2023-01-30T02:32:46.172Z,100710.03
2023-01-30T02:34:08.922Z,100746.66
2023-01-30T02:35:46.152Z,100723.78
2023-01-30T02:36:56.499Z,100723.88
2023-01-30T02:38:29.948Z,100722.03
2023-01-30T02:40:09.330Z,100712.50
2023-01-30T02:41:36.000Z,100703.91
2023-01-30T02:43:08.960Z,100696.19
2023-01-30T02:44:15.505Z,100663.69
2023-01-30T02:45:26.658Z,100688.06
2023-01-30T02:46:40.814Z,100706.41
2023-01-30T02:47:49.694Z,100711.38
2023-01-30T02:49:00.808Z,100689.00
2023-01-30T02:50:10.822Z,100693.34
2023-01-30T02:51:29.168Z,100664.34
2023-01-30T02:52:31.535Z,100639.13
2023-01-30T02:53:34.650Z,100713.31
2023-01-30T02:54:36.277Z,100547.81
2023-01-30T02:55:40.790Z,100644.41
2023-01-30T02:56:54.375Z,100558.34
2023-01-30T02:57:56.576Z,100589.97
2023-01-30T02:59:08.703Z,100580.16
2023-01-30T03:00:11.096Z,100616.44
2023-01-30T03:01:37.281Z,100638.31
2023-01-30T03:03:11.325Z,100654.25
2023-01-30T03:04:30.145Z,100627.28
2023-01-30T03:06:02.712Z,100635.94
2023-01-30T03:07:28.088Z,100599.25
2023-01-30T03:08:43.174Z,100583.84
2023-01-30T03:10:02.699Z,100550.94
2023-01-30T03:11:07.478Z,100590.78
2023-01-30T03:12:14.811Z,100596.91
2023-01-30T03:13:19.386Z,100594.50
2023-01-30T03:14:27.407Z,100571.19
2023-01-30T03:15:34.211Z,100594.63
2023-01-30T03:16:38.973Z,100435.19
2023-01-30T03:17:44.493Z,100546.59
2023-01-30T03:18:46.430Z,100494.03
2023-01-30T03:19:48.535Z,100488.16
2023-01-30T03:20:51.507Z,100522.47
2023-01-30T03:21:53.080Z,100528.75
2023-01-30T03:22:55.421Z,100508.25
2023-01-30T03:23:57.335Z,100487.47
2023-01-30T03:24:58.996Z,100438.28
2023-01-30T03:26:05.010Z,100530.56
2023-01-30T03:27:10.733Z,100508.31
2023-01-30T03:28:14.111Z,100388.38
2023-01-30T03:29:16.456Z,100557.97
2023-01-30T03:30:18.424Z,100487.47
2023-01-30T03:31:20.154Z,100343.38
2023-01-30T03:32:21.819Z,100472.81
2023-01-30T03:33:23.424Z,100530.34
2023-01-30T03:34:25.120Z,100502.03
2023-01-30T03:35:26.899Z,100423.50
2023-01-30T03:36:28.568Z,100595.69
2023-01-30T03:37:30.585Z,100482.16
2023-01-30T03:38:32.213Z,100536.78
2023-01-30T03:39:34.295Z,100573.41
2023-01-30T03:40:38.848Z,100563.97
2023-01-30T03:41:40.663Z,100590.63
2023-01-30T03:42:42.585Z,100589.72
2023-01-30T03:43:44.249Z,100627.31
2023-01-30T03:44:46.105Z,100477.31
2023-01-30T03:45:47.879Z,100587.88
2023-01-30T03:46:51.759Z,100535.34
2023-01-30T03:47:53.449Z,100599.19
2023-01-30T03:48:55.140Z,100586.41
2023-01-30T03:49:56.751Z,100472.34
2023-01-30T03:50:58.478Z,100595.25
2023-01-30T03:52:00.059Z,100565.47
2023-01-30T03:53:01.675Z,100586.91
2023-01-30T03:54:03.439Z,100536.63
2023-01-30T03:55:05.419Z,100604.09
2023-01-30T03:56:07.084Z,100570.50
2023-01-30T03:57:08.745Z,100578.19
2023-01-30T03:58:10.399Z,100586.13
2023-01-30T03:59:12.168Z,100593.78
2023-01-30T04:00:14.391Z,100590.59
2023-01-30T04:01:16.138Z,100569.13
2023-01-30T04:02:22.469Z,100514.75
2023-01-30T04:03:24.724Z,100562.47
2023-01-30T04:04:26.434Z,100428.22
2023-01-30T04:05:28.010Z,100442.94
2023-01-30T04:06:29.655Z,100542.59
2023-01-30T04:07:31.467Z,100449.78
2023-01-30T04:08:33.128Z,100459.34
2023-01-30T04:09:34.679Z,100505.91
2023-01-30T04:10:36.301Z,100476.72
2023-01-30T04:11:38.679Z,100477.50
2023-01-30T04:12:40.304Z,100601.53
2023-01-30T04:13:41.929Z,100568.75
2023-01-30T04:14:43.512Z,100453.22
2023-01-30T04:15:45.173Z,100432.56
2023-01-30T04:16:46.963Z,100493.31
2023-01-30T04:17:48.735Z,100403.22
2023-01-30T04:18:51.039Z,100549.75
2023-01-30T04:19:52.601Z,100476.19
2023-01-30T04:20:54.269Z,100466.75
2023-01-30T04:21:55.879Z,100575.41
2023-01-30T04:22:57.604Z,100490.75
2023-01-30T04:23:59.296Z,100423.88
2023-01-30T04:25:00.987Z,100545.22
2023-01-30T04:26:02.616Z,100553.09
2023-01-30T04:27:04.200Z,100538.56
2023-01-30T04:28:05.862Z,100388.66
2023-01-30T04:29:07.636Z,100392.94
2023-01-30T04:30:10.048Z,100417.06
2023-01-30T04:31:11.937Z,100502.41
2023-01-30T04:32:13.759Z,100468.59
2023-01-30T04:33:15.355Z,100457.38
2023-01-30T04:34:19.623Z,100567.78
2023-01-30T04:35:21.567Z,100477.22
2023-01-30T04:36:23.214Z,100450.38
2023-01-30T04:37:24.971Z,100434.81
2023-01-30T04:38:27.844Z,100567.75
2023-01-30T04:39:29.612Z,100469.28
2023-01-30T04:40:31.221Z,100452.06
2023-01-30T04:41:33.100Z,100561.78
2023-01-30T04:42:34.680Z,100478.00
2023-01-30T04:43:36.386Z,100590.00
2023-01-30T04:44:37.959Z,100578.94
2023-01-30T04:45:43.696Z,100581.59
2023-01-30T04:46:45.427Z,100515.69
2023-01-30T04:47:47.006Z,100536.78
2023-01-30T04:48:48.614Z,100404.06
2023-01-30T04:49:50.229Z,100571.19
2023-01-30T04:50:54.278Z,100579.78
2023-01-30T04:51:55.841Z,100526.34
2023-01-30T04:52:57.512Z,100591.88
2023-01-30T04:53:59.196Z,100432.28
2023-01-30T04:55:00.901Z,100459.09
2023-01-30T04:56:02.690Z,100490.88
2023-01-30T04:57:04.436Z,100537.56
2023-01-30T04:58:06.095Z,100571.22
2023-01-30T04:59:07.811Z,100504.97
2023-01-30T05:00:10.063Z,100444.44
2023-01-30T05:01:24.973Z,100556.75
2023-01-30T05:02:26.598Z,100611.53
2023-01-30T05:03:28.273Z,100544.66
2023-01-30T05:04:29.823Z,100572.31
2023-01-30T05:05:31.432Z,100462.91
2023-01-30T05:06:34.275Z,100560.34
2023-01-30T05:07:36.194Z,100550.00
2023-01-30T05:08:37.853Z,100451.84
2023-01-30T05:09:39.518Z,100481.97
2023-01-30T05:10:41.387Z,100575.97
2023-01-30T05:11:44.013Z,100523.34
2023-01-30T05:12:46.192Z,100515.56
2023-01-30T05:13:48.268Z,100426.13
2023-01-30T05:14:49.852Z,100439.81
2023-01-30T05:15:51.561Z,100472.63
2023-01-30T05:16:53.215Z,100574.31
2023-01-30T05:17:54.892Z,100508.03
2023-01-30T05:18:56.505Z,100539.91
2023-01-30T05:19:58.255Z,100483.91
2023-01-30T05:21:04.713Z,100558.81
2023-01-30T05:22:06.330Z,100551.06
2023-01-30T05:23:07.849Z,100461.34
2023-01-30T05:24:09.560Z,100396.88
2023-01-30T05:25:11.319Z,100583.81
2023-01-30T05:26:13.751Z,100489.16
2023-01-30T05:27:15.595Z,100529.59
2023-01-30T05:28:17.145Z,100504.50
2023-01-30T05:29:18.850Z,100595.03
2023-01-30T05:30:20.608Z,100491.72
2023-01-30T05:31:22.990Z,100565.81
2023-01-30T05:32:25.692Z,100481.44
2023-01-30T05:33:27.446Z,100393.59
2023-01-30T05:34:28.937Z,100546.81
2023-01-30T05:35:30.533Z,100495.19
2023-01-30T05:36:32.099Z,100537.38
2023-01-30T05:37:33.680Z,100440.03
2023-01-30T05:38:35.220Z,100549.44
2023-01-30T05:39:37.091Z,100474.44
2023-01-30T05:40:38.719Z,100534.78
2023-01-30T05:41:40.387Z,100457.28
2023-01-30T05:42:42.010Z,100559.72
2023-01-30T05:43:44.207Z,100540.72
2023-01-30T05:44:46.170Z,100562.34
2023-01-30T05:45:53.591Z,100550.16
2023-01-30T05:46:55.296Z,100579.53
2023-01-30T05:48:01.290Z,100511.50
2023-01-30T05:49:04.317Z,100425.41
2023-01-30T05:50:06.219Z,100528.69
2023-01-30T05:51:19.327Z,100490.00
2023-01-30T05:52:21.787Z,100452.75
2023-01-30T05:53:26.535Z,100555.41
2023-01-30T05:54:28.218Z,100563.97
2023-01-30T05:55:29.951Z,100487.41
2023-01-30T05:56:33.365Z,100512.31
2023-01-30T05:57:34.995Z,100518.38
2023-01-30T05:58:36.749Z,100383.06
2023-01-30T05:59:38.324Z,100524.41
2023-01-30T06:00:40.068Z,100440.78
2023-01-30T06:01:41.750Z,100464.00
2023-01-30T06:02:43.385Z,100484.81
2023-01-30T06:03:45.536Z,100541.56
2023-01-30T06:04:47.212Z,100546.78
2023-01-30T06:05:48.864Z,100508.00
2023-01-30T06:06:51.796Z,100395.16
2023-01-30T06:07:53.567Z,100514.16
2023-01-30T06:08:56.380Z,100494.31
2023-01-30T06:09:58.024Z,100517.66
2023-01-30T06:11:01.527Z,100535.72
2023-01-30T06:12:03.360Z,100519.41
2023-01-30T06:13:05.082Z,100506.44
2023-01-30T06:14:06.750Z,100552.94
2023-01-30T06:15:09.300Z,100426.38
2023-01-30T06:16:13.060Z,100499.66
2023-01-30T06:17:15.011Z,100542.66
2023-01-30T06:18:16.868Z,100446.25
2023-01-30T06:19:18.525Z,100508.28
2023-01-30T06:20:20.620Z,100418.72
2023-01-30T06:21:22.243Z,100441.94
2023-01-30T06:22:24.009Z,100430.75
2023-01-30T06:23:28.848Z,100503.06
2023-01-30T06:24:31.629Z,100546.16
2023-01-30T06:25:33.242Z,100475.44
2023-01-30T06:26:35.587Z,100533.19
2023-01-30T06:27:38.218Z,100570.22
2023-01-30T06:28:39.913Z,100528.94
2023-01-30T06:29:41.629Z,100546.94
2023-01-30T06:30:46.663Z,100512.59
2023-01-30T06:31:48.310Z,100485.00
2023-01-30T06:32:51.983Z,100485.03
2023-01-30T06:33:54.225Z,100508.28
2023-01-30T06:34:55.879Z,100516.00
2023-01-30T06:35:57.498Z,100509.94
2023-01-30T06:36:59.172Z,100418.72
2023-01-30T06:38:00.801Z,100528.94
2023-01-30T06:39:02.449Z,100542.75
2023-01-30T06:40:05.759Z,100497.06
2023-01-30T06:41:07.887Z,100438.56
2023-01-30T06:42:13.256Z,100325.88
2023-01-30T06:43:18.182Z,100491.09
2023-01-30T06:44:24.205Z,100304.34
2023-01-30T06:45:26.083Z,100450.63
2023-01-30T06:46:27.868Z,100480.75
2023-01-30T06:47:29.433Z,100479.03
2023-01-30T06:48:31.074Z,100385.13
2023-01-30T06:49:32.678Z,100381.78
2023-01-30T06:50:35.272Z,100528.94
2023-01-30T06:51:36.945Z,100384.34
2023-01-30T06:52:44.820Z,100490.22
2023-01-30T06:53:46.526Z,100462.66
2023-01-30T06:54:48.140Z,100536.69
2023-01-30T06:55:49.761Z,100417.88
2023-01-30T06:56:51.463Z,100503.13
2023-01-30T06:58:13.760Z,100337.00
2023-01-30T06:59:18.042Z,100489.38
2023-01-30T07:00:20.807Z,100442.03
2023-01-30T07:01:22.391Z,100464.41
2023-01-30T07:02:24.002Z,100483.34
2023-01-30T07:03:25.580Z,100516.91
2023-01-30T07:04:27.448Z,100472.13
2023-01-30T07:05:29.339Z,100487.63
2023-01-30T07:06:31.423Z,100494.53
2023-01-30T07:07:33.994Z,100510.88
2023-01-30T07:08:35.655Z,100584.88
2023-01-30T07:09:37.429Z,100437.72
2023-01-30T07:10:39.656Z,100485.91
2023-01-30T07:11:41.361Z,100447.13
2023-01-30T07:12:43.001Z,100567.66
2023-01-30T07:13:44.881Z,100461.75
2023-01-30T07:14:46.708Z,100349.09
2023-01-30T07:15:48.650Z,100488.47
2023-01-30T07:16:50.439Z,100407.56
2023-01-30T07:17:52.148Z,100515.19
2023-01-30T07:18:57.348Z,100527.22
2023-01-30T07:19:59.386Z,100485.03
2023-01-30T07:21:01.067Z,100571.16
2023-01-30T07:22:03.435Z,100512.56
2023-01-30T07:23:05.130Z,100526.38
2023-01-30T07:24:07.449Z,100544.44
2023-01-30T07:25:09.331Z,100497.03
2023-01-30T07:26:11.019Z,100533.22
2023-01-30T07:27:13.515Z,100487.63
2023-01-30T07:28:15.147Z,100579.75
2023-01-30T07:29:16.943Z,100452.34
2023-01-30T07:30:19.155Z,100439.44
2023-01-30T07:31:20.753Z,100516.03
2023-01-30T07:32:22.792Z,100472.06
2023-01-30T07:33:24.428Z,100535.84
2023-01-30T07:34:26.123Z,100547.84
2023-01-30T07:35:31.332Z,100566.81
2023-01-30T07:36:34.734Z,100437.69
2023-01-30T07:37:36.449Z,100416.94
2023-01-30T07:38:38.229Z,100472.94
2023-01-30T07:39:39.824Z,100547.00
2023-01-30T07:40:41.498Z,100522.88
2023-01-30T07:41:43.214Z,100501.34
2023-01-30T07:42:45.082Z,100553.91
2023-01-30T07:43:48.848Z,100556.47
2023-01-30T07:44:50.611Z,100529.78
2023-01-30T07:45:52.456Z,100385.19
2023-01-30T07:46:54.181Z,100556.50
2023-01-30T07:47:55.790Z,100428.22
2023-01-30T07:48:59.603Z,100568.56
2023-01-30T07:50:01.762Z,100520.34
2023-01-30T07:51:03.477Z,100575.41
2023-01-30T07:52:05.420Z,100620.22
2023-01-30T07:53:10.267Z,100456.59
2023-01-30T07:54:11.935Z,100408.41
2023-01-30T07:55:13.727Z,100385.19
2023-01-30T07:56:18.726Z,100583.19
2023-01-30T07:57:21.436Z,100506.56
2023-01-30T07:58:23.172Z,100538.44
2023-01-30T07:59:24.993Z,100499.69
2023-01-30T08:00:27.115Z,100541.84
2023-01-30T08:01:29.192Z,100495.34
2023-01-30T08:02:30.946Z,100520.34
2023-01-30T08:03:32.680Z,100390.41
2023-01-30T08:04:34.435Z,100552.22
2023-01-30T08:05:36.089Z,100543.59
2023-01-30T08:06:39.741Z,100522.94
2023-01-30T08:07:41.482Z,100535.00
2023-01-30T08:08:43.573Z,100499.63
2023-01-30T08:09:45.493Z,100424.78
2023-01-30T08:10:50.430Z,100573.72
2023-01-30T08:11:52.255Z,100474.72
2023-01-30T08:12:54.105Z,100494.53
2023-01-30T08:13:55.929Z,100564.28
2023-01-30T08:14:57.614Z,100491.09
2023-01-30T08:16:00.655Z,100519.50
2023-01-30T08:17:02.419Z,100416.25
2023-01-30T08:18:04.028Z,100524.66
2023-01-30T08:19:06.426Z,100493.69
2023-01-30T08:20:08.994Z,100547.06
2023-01-30T08:21:11.772Z,100534.13
2023-01-30T08:22:14.476Z,100380.09
2023-01-30T08:23:16.093Z,100522.94
2023-01-30T08:24:17.795Z,100502.28
2023-01-30T08:25:20.276Z,100385.28
2023-01-30T08:26:22.346Z,100530.69
2023-01-30T08:27:24.198Z,100443.75
2023-01-30T08:28:26.509Z,100557.41
2023-01-30T08:29:28.305Z,100410.19
2023-01-30T08:30:30.976Z,100421.38
2023-01-30T08:31:32.659Z,100504.03
2023-01-30T08:32:34.376Z,100538.44
2023-01-30T08:33:35.947Z,100541.88
2023-01-30T08:34:37.638Z,100541.88
2023-01-30T08:35:40.279Z,100555.66
2023-01-30T08:36:41.914Z,100584.09
2023-01-30T08:37:47.060Z,100581.50
2023-01-30T08:38:49.047Z,100519.50
2023-01-30T08:39:50.758Z,100421.38
2023-01-30T08:40:53.630Z,100465.28
2023-01-30T08:41:55.340Z,100528.09
2023-01-30T08:42:56.965Z,100526.34
2023-01-30T08:43:58.668Z,100479.88
2023-01-30T08:45:00.384Z,100497.97
2023-01-30T08:46:02.561Z,100473.88
2023-01-30T08:47:04.259Z,100548.75
2023-01-30T08:48:07.103Z,100360.31
2023-01-30T08:49:08.801Z,100547.03
2023-01-30T08:50:11.285Z,100547.03
2023-01-30T08:51:12.935Z,100555.66
2023-01-30T08:52:14.805Z,100500.56
2023-01-30T08:53:16.622Z,100450.66
2023-01-30T08:54:18.436Z,100522.91
2023-01-30T08:55:21.252Z,100538.47
2023-01-30T08:56:23.107Z,100452.38
2023-01-30T08:57:24.991Z,100536.72
2023-01-30T08:58:26.833Z,100453.22
2023-01-30T08:59:28.424Z,100481.63
2023-01-30T09:00:30.532Z,100472.97
2023-01-30T09:01:32.354Z,100431.69
2023-01-30T09:02:34.233Z,100436.84
2023-01-30T09:03:36.160Z,100489.31
2023-01-30T09:04:39.110Z,100523.75
2023-01-30T09:05:40.912Z,100517.72
2023-01-30T09:06:43.045Z,100525.47
2023-01-30T09:07:45.592Z,100533.22
2023-01-30T09:08:47.445Z,100450.63
2023-01-30T09:09:49.025Z,100541.84
2023-01-30T09:10:50.941Z,100466.03
2023-01-30T09:11:52.675Z,100397.28
2023-01-30T09:12:54.587Z,100496.97
2023-01-30T09:13:56.391Z,100361.97
2023-01-30T09:14:58.568Z,100498.69
2023-01-30T09:16:00.243Z,100489.22
2023-01-30T09:17:01.969Z,100350.78
2023-01-30T09:18:05.071Z,100386.03
2023-01-30T09:19:06.627Z,100511.56
2023-01-30T09:20:10.079Z,100367.06
2023-01-30T09:21:13.541Z,100394.59
2023-01-30T09:22:16.560Z,100361.94
2023-01-30T09:23:18.281Z,100441.94
2023-01-30T09:24:20.842Z,100484.94
2023-01-30T09:25:22.520Z,100507.16
2023-01-30T09:26:24.495Z,100458.28
2023-01-30T09:27:26.642Z,100420.41
2023-01-30T09:28:31.077Z,100360.19
2023-01-30T09:29:32.991Z,100519.28
2023-01-30T09:30:35.078Z,100433.31
2023-01-30T09:31:37.071Z,100484.97
2023-01-30T09:32:39.141Z,100449.66
2023-01-30T09:33:40.929Z,100385.22
2023-01-30T09:34:43.007Z,100398.91
2023-01-30T09:35:48.091Z,100286.34
2023-01-30T09:36:49.725Z,100368.78
2023-01-30T09:37:53.577Z,100503.03
2023-01-30T09:38:55.339Z,100462.53
2023-01-30T09:39:56.913Z,100483.97
2023-01-30T09:41:07.773Z,100493.44
2023-01-30T09:42:24.117Z,100517.56
2023-01-30T09:43:57.701Z,100496.75
2023-01-30T09:45:20.937Z,100502.75
2023-01-30T09:46:37.788Z,100491.47
2023-01-30T09:47:52.500Z,100426.88
2023-01-30T09:49:20.068Z,100492.94
2023-01-30T09:50:21.886Z,100472.22
2023-01-30T09:51:32.019Z,100473.94
2023-01-30T09:52:57.652Z,100438.72
2023-01-30T09:54:15.455Z,100492.00
2023-01-30T09:55:27.189Z,100348.50
2023-01-30T09:56:29.468Z,100430.44
2023-01-30T09:57:31.184Z,100395.84
2023-01-30T09:59:03.081Z,100472.22
2023-01-30T10:00:23.271Z,100462.66
2023-01-30T10:01:39.468Z,100453.34
2023-01-30T10:02:50.172Z,100459.50
2023-01-30T10:04:16.209Z,100462.06
2023-01-30T10:05:18.950Z,100361.72
2023-01-30T10:06:20.831Z,100347.00
2023-01-30T10:07:36.872Z,100470.72
2023-01-30T10:08:50.408Z,100496.59
2023-01-30T10:09:59.900Z,100457.78
2023-01-30T10:11:11.927Z,100393.53
2023-01-30T10:12:19.824Z,100472.63
2023-01-30T10:13:28.049Z,100465.72
2023-01-30T10:14:32.587Z,100433.97
2023-01-30T10:15:52.517Z,100482.06
2023-01-30T10:17:05.902Z,100467.47
2023-01-30T10:18:36.844Z,100379.81
2023-01-30T10:20:14.320Z,100483.03
2023-01-30T10:21:25.550Z,100472.66
2023-01-30T10:22:54.097Z,100462.50
2023-01-30T10:24:01.702Z,100466.69
2023-01-30T10:25:20.216Z,100465.81
2023-01-30T10:26:26.530Z,100475.22
2023-01-30T10:27:31.064Z,100408.13
2023-01-30T10:28:39.269Z,100465.72
2023-01-30T10:29:50.049Z,100483.19
2023-01-30T10:30:56.683Z,100408.34
2023-01-30T10:32:12.455Z,100404.78
2023-01-30T10:33:45.223Z,100485.66
2023-01-30T10:34:52.968Z,100485.78
2023-01-30T10:36:11.065Z,100449.53
2023-01-30T10:37:24.577Z,100471.94
2023-01-30T10:38:50.731Z,100442.63
2023-01-30T10:40:04.897Z,100465.84
2023-01-30T10:41:12.161Z,100449.44
2023-01-30T10:42:38.873Z,100438.28
2023-01-30T10:43:48.309Z,100409.09
2023-01-30T10:44:50.299Z,100348.94
2023-01-30T10:46:10.144Z,100405.72
2023-01-30T10:47:47.323Z,100450.34
2023-01-30T10:48:59.798Z,100461.50
2023-01-30T10:50:17.328Z,100389.41
2023-01-30T10:51:42.683Z,100442.69
2023-01-30T10:53:06.274Z,100439.13
2023-01-30T10:54:19.764Z,100443.34
2023-01-30T10:55:44.943Z,100437.34
2023-01-30T10:56:52.287Z,100445.13
2023-01-30T10:58:29.293Z,100441.69
2023-01-30T10:59:45.486Z,100362.66
2023-01-30T11:00:53.143Z,100441.59
2023-01-30T11:02:02.917Z,100358.47
2023-01-30T11:03:15.373Z,100427.03
2023-01-30T11:04:20.190Z,100426.13
2023-01-30T11:05:25.830Z,100299.78
2023-01-30T11:06:27.930Z,100418.41
2023-01-30T11:07:34.054Z,100324.69
2023-01-30T11:08:37.164Z,100404.53
2023-01-30T11:09:47.336Z,100425.00
2023-01-30T11:10:51.152Z,100297.03
2023-01-30T11:11:54.801Z,100415.53
2023-01-30T11:13:11.594Z,100419.91
2023-01-30T11:14:13.928Z,100315.25
2023-01-30T11:15:16.504Z,100296.22
2023-01-30T11:16:18.854Z,100329.59
2023-01-30T11:17:32.665Z,100316.13
2023-01-30T11:20:20.013Z,100426.72
2023-01-30T11:21:43.084Z,100412.19
2023-01-30T11:23:04.873Z,100420.81
2023-01-30T11:24:17.214Z,100420.81
2023-01-30T11:25:22.787Z,100389.88
2023-01-30T11:26:41.525Z,100326.38
2023-01-30T11:28:02.296Z,100372.81
2023-01-30T11:29:29.387Z,100360.03
2023-01-30T11:30:37.961Z,100310.22
2023-01-30T11:31:42.047Z,100419.25
2023-01-30T11:32:47.459Z,100353.09
2023-01-30T11:34:12.878Z,100348.78
2023-01-30T11:35:14.730Z,100428.72
2023-01-30T11:36:37.920Z,100330.78
2023-01-30T11:37:41.704Z,100408.09
2023-01-30T11:38:58.701Z,100413.13
2023-01-30T11:40:26.425Z,100413.13
2023-01-30T11:41:28.790Z,100346.16
2023-01-30T11:42:32.087Z,100409.63
2023-01-30T11:43:37.873Z,100436.41
2023-01-30T11:44:42.876Z,100316.09
2023-01-30T11:45:50.475Z,100367.53
2023-01-30T11:46:52.440Z,100409.66
2023-01-30T11:47:58.327Z,100316.06
2023-01-30T11:49:48.145Z,100390.66
2023-01-30T11:51:02.313Z,100456.19
2023-01-30T11:52:06.359Z,100354.78
2023-01-30T11:53:21.599Z,100423.34
2023-01-30T11:54:33.590Z,100400.28
2023-01-30T11:55:39.660Z,100272.25
2023-01-30T11:56:55.988Z,100327.16
2023-01-30T11:57:59.209Z,100407.91
2023-01-30T11:59:16.443Z,100412.84
2023-01-30T12:00:25.424Z,100474.84
2023-01-30T12:01:30.021Z,100444.66
2023-01-30T12:02:54.519Z,100406.66
2023-01-30T12:03:58.923Z,100277.66
2023-01-30T12:05:06.659Z,100345.50
2023-01-30T12:06:08.303Z,100270.72
2023-01-30T12:07:37.223Z,100409.69
2023-01-30T12:08:43.028Z,100412.34
2023-01-30T12:09:52.606Z,100317.38
2023-01-30T12:11:31.142Z,100154.13
2023-01-30T12:12:52.512Z,100430.09
2023-01-30T12:14:04.672Z,100308.97
2023-01-30T12:15:31.173Z,100405.03
2023-01-30T12:17:05.715Z,100330.72
2023-01-30T12:18:31.626Z,100427.47
2023-01-30T12:19:41.760Z,100325.16
2023-01-30T12:20:55.060Z,100393.75
2023-01-30T12:22:26.855Z,100277.06
2023-01-30T12:23:42.590Z,100282.19
2023-01-30T12:24:53.377Z,100359.38
2023-01-30T12:26:34.130Z,100412.66
2023-01-30T12:28:06.976Z,100412.84
2023-01-30T12:29:34.266Z,100313.38
2023-01-30T12:31:13.668Z,100231.84
2023-01-30T12:32:22.363Z,100253.53
2023-01-30T12:33:42.901Z,100516.69
2023-01-30T12:34:52.516Z,100394.16
2023-01-30T12:36:25.694Z,100303.16
2023-01-30T12:38:10.651Z,100399.19
2023-01-30T12:39:32.142Z,100300.44
2023-01-30T12:41:12.906Z,100154.59